createdAt,value
2019-03-22T00:00:21.722Z,16.00
2019-03-22T00:01:20.786Z,16.00
2019-03-22T00:02:21.061Z,16.00
2019-03-22T00:03:20.767Z,16.00
2019-03-22T00:04:20.760Z,16.00
2019-03-22T00:05:20.746Z,16.00
2019-03-22T00:06:20.765Z,16.00
2019-03-22T00:07:20.723Z,16.00
2019-03-22T00:08:20.714Z,16.00
2019-03-22T00:09:20.981Z,16.00
2019-03-22T00:10:20.694Z,16.00
2019-03-22T00:11:20.687Z,16.00
2019-03-22T00:12:20.704Z,16.00
2019-03-22T00:13:20.661Z,16.00
2019-03-22T00:14:20.651Z,16.00
2019-03-22T00:15:20.647Z,16.00
2019-03-22T00:16:20.912Z,16.00
2019-03-22T00:17:20.665Z,16.00
2019-03-22T00:18:20.648Z,16.00
2019-03-22T00:19:20.599Z,16.00
2019-03-22T00:20:20.589Z,16.00
2019-03-22T00:21:20.577Z,16.00
2019-03-22T00:22:20.585Z,16.00
2019-03-22T00:23:20.837Z,16.00
2019-03-22T00:24:20.578Z,16.00
2019-03-22T00:25:20.537Z,20.00
2019-03-22T00:26:20.526Z,16.00
2019-03-22T00:27:20.515Z,20.00
2019-03-22T00:28:20.504Z,16.00
2019-03-22T00:29:20.494Z,16.00
2019-03-22T00:30:20.818Z,20.00
2019-03-22T00:31:20.482Z,20.00
2019-03-22T00:32:20.462Z,20.00
2019-03-22T00:33:20.453Z,16.00
2019-03-22T00:34:20.447Z,16.00
2019-03-22T00:35:20.432Z,16.00
2019-03-22T00:36:20.457Z,16.00
2019-03-22T00:37:20.753Z,16.00
2019-03-22T00:38:20.400Z,16.00
2019-03-22T00:39:20.400Z,16.00
2019-03-22T00:40:20.377Z,16.00
2019-03-22T00:41:20.367Z,16.00
2019-03-22T00:42:20.386Z,16.00
2019-03-22T00:43:20.358Z,16.00
2019-03-22T00:44:20.648Z,16.00
2019-03-22T00:45:20.337Z,16.00
2019-03-22T00:46:20.315Z,16.00
2019-03-22T00:47:20.304Z,16.00
2019-03-22T00:48:20.321Z,16.00
2019-03-22T00:49:20.283Z,20.00
2019-03-22T00:50:20.272Z,16.00
2019-03-22T00:51:20.543Z,16.00
2019-03-22T00:52:20.250Z,16.00
2019-03-22T00:53:20.241Z,20.00
2019-03-22T00:54:20.274Z,20.00
2019-03-22T00:55:20.222Z,20.00
2019-03-22T00:56:20.209Z,20.00
2019-03-22T00:57:28.413Z,20.00
2019-03-22T00:58:21.188Z,16.00
2019-03-22T00:59:20.181Z,16.00
2019-03-22T01:00:20.199Z,16.00
2019-03-22T01:01:20.159Z,16.00
2019-03-22T01:02:20.150Z,16.00
2019-03-22T01:03:20.140Z,16.00
2019-03-22T01:04:20.414Z,16.00
2019-03-22T01:05:20.121Z,16.00
2019-03-22T01:06:20.131Z,16.00
2019-03-22T01:07:20.113Z,16.00
2019-03-22T01:08:20.095Z,16.00
2019-03-22T01:09:20.071Z,16.00
2019-03-22T01:10:20.065Z,16.00
2019-03-22T01:11:20.054Z,16.00
2019-03-22T01:12:20.120Z,16.00
2019-03-22T01:13:20.036Z,16.00
2019-03-22T01:14:20.018Z,16.00
2019-03-22T01:15:20.008Z,16.00
2019-03-22T01:16:20.279Z,16.00
2019-03-22T01:17:19.991Z,16.00
2019-03-22T01:18:20.006Z,16.00
2019-03-22T01:19:19.982Z,16.00
2019-03-22T01:20:19.958Z,16.00
2019-03-22T01:21:19.944Z,16.00
2019-03-22T01:22:20.265Z,16.00
2019-03-22T01:23:19.943Z,16.00
2019-03-22T01:24:19.971Z,16.00
2019-03-22T01:25:19.903Z,16.00
2019-03-22T01:26:19.891Z,16.00
2019-03-22T01:27:19.881Z,16.00
2019-03-22T01:28:19.870Z,16.00
2019-03-22T01:29:20.154Z,16.00
2019-03-22T01:30:19.934Z,16.00
2019-03-22T01:31:19.841Z,16.00
2019-03-22T01:32:19.835Z,16.00
2019-03-22T01:33:19.819Z,16.00
2019-03-22T01:34:19.812Z,16.00
2019-03-22T01:35:19.813Z,16.00
2019-03-22T01:36:20.109Z,16.00
2019-03-22T01:37:19.778Z,16.00
2019-03-22T01:38:19.767Z,16.00
2019-03-22T01:39:19.774Z,16.00
2019-03-22T01:40:19.748Z,16.00
2019-03-22T01:41:19.737Z,16.00
2019-03-22T01:42:19.760Z,16.00
2019-03-22T01:43:19.991Z,16.00
2019-03-22T01:44:19.710Z,16.00
2019-03-22T01:45:19.718Z,20.00
2019-03-22T01:46:19.683Z,20.00
2019-03-22T01:47:19.675Z,16.00
2019-03-22T01:48:19.735Z,20.00
2019-03-22T01:49:19.657Z,20.00
2019-03-22T01:50:19.922Z,16.00
2019-03-22T01:51:19.636Z,20.00
2019-03-22T01:52:19.637Z,20.00
2019-03-22T01:53:20.121Z,20.00
2019-03-22T01:54:19.628Z,20.00
2019-03-22T01:55:19.594Z,16.00
2019-03-22T01:56:19.581Z,20.00
2019-03-22T01:57:19.852Z,16.00
2019-03-22T01:58:19.565Z,16.00
2019-03-22T01:59:19.560Z,16.00
2019-03-22T02:00:19.569Z,16.00
2019-03-22T02:01:19.567Z,16.00
2019-03-22T02:02:19.637Z,16.00
2019-03-22T02:03:19.548Z,16.00
2019-03-22T02:04:19.789Z,16.00
2019-03-22T02:05:19.528Z,16.00
2019-03-22T02:06:19.598Z,16.00
2019-03-22T02:07:19.481Z,16.00
2019-03-22T02:08:19.457Z,16.00
2019-03-22T02:09:19.457Z,16.00
2019-03-22T02:10:19.467Z,16.00
2019-03-22T02:11:19.705Z,16.00
2019-03-22T02:12:19.452Z,16.00
2019-03-22T02:13:20.808Z,16.00
2019-03-22T02:14:19.396Z,16.00
2019-03-22T02:15:19.388Z,16.00
2019-03-22T02:16:19.379Z,16.00
2019-03-22T02:17:19.366Z,16.00
2019-03-22T02:18:19.734Z,16.00
2019-03-22T02:19:19.354Z,16.00
2019-03-22T02:20:19.381Z,16.00
2019-03-22T02:21:19.326Z,16.00
2019-03-22T02:22:19.316Z,16.00
2019-03-22T02:23:19.304Z,16.00
2019-03-22T02:24:19.354Z,16.00
2019-03-22T02:25:19.564Z,16.00
2019-03-22T02:26:19.271Z,16.00
2019-03-22T02:27:19.272Z,16.00
2019-03-22T02:28:19.254Z,16.00
2019-03-22T02:29:19.246Z,16.00
2019-03-22T02:30:19.282Z,16.00
2019-03-22T02:31:19.225Z,16.00
2019-03-22T02:32:19.508Z,16.00
2019-03-22T02:33:19.202Z,16.00
2019-03-22T02:34:19.190Z,16.00
2019-03-22T02:35:28.514Z,16.00
2019-03-22T02:36:20.198Z,16.00
2019-03-22T02:37:19.186Z,16.00
2019-03-22T02:38:19.202Z,16.00
2019-03-22T02:39:19.518Z,16.00
2019-03-22T02:40:19.145Z,16.00
2019-03-22T02:41:19.149Z,16.00
2019-03-22T02:42:19.182Z,16.00
2019-03-22T02:43:19.098Z,16.00
2019-03-22T02:44:19.087Z,16.00
2019-03-22T02:45:19.082Z,16.00
2019-03-22T02:46:19.348Z,16.00
2019-03-22T02:47:19.074Z,16.00
2019-03-22T02:48:19.079Z,16.00
2019-03-22T02:49:19.035Z,16.00
2019-03-22T02:50:19.973Z,16.00
2019-03-22T02:51:19.034Z,16.00
2019-03-22T02:52:19.010Z,16.00
2019-03-22T02:53:19.432Z,16.00
2019-03-22T02:54:19.014Z,16.00
2019-03-22T02:55:18.990Z,16.00
2019-03-22T02:56:18.962Z,16.00
2019-03-22T02:57:18.956Z,16.00
2019-03-22T02:58:21.049Z,16.00
2019-03-22T02:59:18.933Z,16.00
2019-03-22T03:02:06.975Z,16.00
2019-03-22T03:03:06.933Z,16.00
2019-03-22T03:04:06.909Z,16.00
2019-03-22T03:05:06.912Z,16.00
2019-03-22T03:06:06.883Z,16.00
2019-03-22T03:07:06.880Z,16.00
2019-03-22T03:08:07.001Z,16.00
2019-03-22T03:09:06.855Z,16.00
2019-03-22T03:10:06.854Z,16.00
2019-03-22T03:11:06.840Z,16.00
2019-03-22T03:12:06.832Z,16.00
2019-03-22T03:13:06.813Z,16.00
2019-03-22T03:14:07.130Z,16.00
2019-03-22T03:15:06.826Z,16.00
2019-03-22T03:16:06.800Z,16.00
2019-03-22T03:17:06.788Z,16.00
2019-03-22T03:18:06.768Z,16.00
2019-03-22T03:19:06.751Z,16.00
2019-03-22T03:20:06.826Z,16.00
2019-03-22T03:21:06.746Z,16.00
2019-03-22T03:22:06.720Z,16.00
2019-03-22T03:23:06.719Z,16.00
2019-03-22T03:24:06.715Z,16.00
2019-03-22T03:25:06.729Z,16.00
2019-03-22T03:26:07.031Z,16.00
2019-03-22T03:27:06.668Z,16.00
2019-03-22T03:28:06.660Z,16.00
2019-03-22T03:29:06.650Z,16.00
2019-03-22T03:30:06.654Z,16.00
2019-03-22T03:31:06.636Z,16.00
2019-03-22T03:32:06.676Z,16.00
2019-03-22T03:33:06.614Z,16.00
2019-03-22T03:34:06.636Z,16.00
2019-03-22T03:35:06.602Z,16.00
2019-03-22T03:36:06.575Z,16.00
2019-03-22T03:37:06.565Z,16.00
2019-03-22T03:38:06.899Z,16.00
2019-03-22T03:39:06.545Z,16.00
2019-03-22T03:40:06.533Z,16.00
2019-03-22T03:41:06.550Z,16.00
2019-03-22T03:42:06.508Z,16.00
2019-03-22T03:43:06.499Z,16.00
2019-03-22T03:44:06.529Z,16.00
2019-03-22T03:45:06.755Z,16.00
2019-03-22T03:46:06.471Z,16.00
2019-03-22T03:47:06.472Z,20.00
2019-03-22T03:48:06.456Z,16.00
2019-03-22T03:49:06.438Z,16.00
2019-03-22T03:50:06.469Z,16.00
2019-03-22T03:51:06.473Z,16.00
2019-03-22T03:52:06.689Z,16.00
2019-03-22T03:53:06.419Z,16.00
2019-03-22T03:54:06.385Z,16.00
2019-03-22T03:55:06.381Z,16.00
2019-03-22T03:56:06.469Z,16.00
2019-03-22T03:57:06.393Z,16.00
2019-03-22T03:58:06.344Z,16.00
2019-03-22T03:59:06.617Z,16.00
2019-03-22T04:00:06.337Z,16.00
2019-03-22T04:01:06.343Z,16.00
2019-03-22T04:02:06.350Z,16.00
2019-03-22T04:03:06.289Z,16.00
2019-03-22T04:04:06.283Z,16.00
2019-03-22T04:05:06.291Z,16.00
2019-03-22T04:06:06.538Z,16.00
2019-03-22T04:07:06.266Z,16.00
2019-03-22T04:08:06.370Z,16.00
2019-03-22T04:09:06.270Z,16.00
2019-03-22T04:10:06.230Z,16.00
2019-03-22T04:11:06.228Z,16.00
2019-03-22T04:12:06.205Z,16.00
2019-03-22T04:13:06.462Z,16.00
2019-03-22T04:14:06.250Z,16.00
2019-03-22T04:15:06.163Z,16.00
2019-03-22T04:16:06.153Z,16.00
2019-03-22T04:17:06.152Z,16.00
2019-03-22T04:18:06.133Z,16.00
2019-03-22T04:19:06.143Z,16.00
2019-03-22T04:20:06.692Z,16.00
2019-03-22T04:21:06.098Z,16.00
2019-03-22T04:22:06.168Z,16.00
2019-03-22T04:23:06.079Z,16.00
2019-03-22T04:24:06.085Z,16.00
2019-03-22T04:25:06.057Z,16.00
2019-03-22T04:26:06.089Z,16.00
2019-03-22T04:27:06.035Z,16.00
2019-03-22T04:28:06.025Z,16.00
2019-03-22T04:29:08.174Z,16.00
2019-03-22T04:30:06.014Z,16.00
2019-03-22T04:31:05.997Z,16.00
2019-03-22T04:32:06.763Z,16.00
2019-03-22T04:33:06.901Z,16.00
2019-03-22T04:34:05.964Z,16.00
2019-03-22T04:35:05.967Z,16.00
2019-03-22T04:36:05.941Z,16.00
2019-03-22T04:37:05.933Z,16.00
2019-03-22T04:38:06.843Z,16.00
2019-03-22T04:39:06.929Z,16.00
2019-03-22T04:40:05.898Z,16.00
2019-03-22T04:41:05.891Z,16.00
2019-03-22T04:42:05.878Z,20.00
2019-03-22T04:43:06.821Z,16.00
2019-03-22T04:44:06.179Z,16.00
2019-03-22T04:45:05.846Z,20.00
2019-03-22T04:46:05.838Z,20.00
2019-03-22T04:47:05.837Z,16.00
2019-03-22T04:48:05.819Z,16.00
2019-03-22T04:49:05.803Z,16.00
2019-03-22T04:50:06.082Z,16.00
2019-03-22T04:51:06.056Z,20.00
2019-03-22T04:52:05.768Z,20.00
2019-03-22T04:53:05.758Z,20.00
2019-03-22T04:54:05.772Z,20.00
2019-03-22T04:55:05.739Z,20.00
2019-03-22T04:56:05.780Z,16.00
2019-03-22T04:57:05.715Z,20.00
2019-03-22T04:58:05.720Z,20.00
2019-03-22T04:59:14.147Z,20.00
2019-03-22T05:00:06.687Z,20.00
2019-03-22T05:01:05.674Z,20.00
2019-03-22T05:02:05.968Z,20.00
2019-03-22T05:03:05.655Z,24.00
2019-03-22T05:04:05.640Z,24.00
2019-03-22T05:05:05.634Z,24.00
2019-03-22T05:06:05.621Z,28.00
2019-03-22T05:07:05.608Z,32.00
2019-03-22T05:08:05.668Z,28.00
2019-03-22T05:09:05.974Z,32.00
2019-03-22T05:10:05.577Z,36.00
2019-03-22T05:11:05.565Z,44.00
2019-03-22T05:12:05.556Z,44.00
2019-03-22T05:13:05.551Z,48.00
2019-03-22T05:14:05.567Z,52.00
2019-03-22T05:15:05.526Z,60.00
2019-03-22T05:16:05.849Z,64.00
2019-03-22T05:17:05.500Z,72.00
2019-03-22T05:18:05.521Z,76.00
2019-03-22T05:19:05.487Z,84.00
2019-03-22T05:20:05.503Z,88.00
2019-03-22T05:21:05.465Z,96.00
2019-03-22T05:22:05.456Z,92.00
2019-03-22T05:23:05.716Z,104.00
2019-03-22T05:24:05.474Z,112.00
2019-03-22T05:25:05.420Z,124.00
2019-03-22T05:26:05.500Z,132.00
2019-03-22T05:27:05.394Z,144.00
2019-03-22T05:28:05.392Z,156.00
2019-03-22T05:29:05.389Z,172.00
2019-03-22T05:30:05.362Z,184.00
2019-03-22T05:31:05.354Z,200.00
2019-03-22T05:32:05.384Z,216.00
2019-03-22T05:33:05.334Z,236.00
2019-03-22T05:34:05.367Z,252.00
2019-03-22T05:35:07.294Z,276.00
2019-03-22T05:36:05.631Z,296.00
2019-03-22T05:37:05.287Z,320.00
2019-03-22T05:38:05.303Z,344.00
2019-03-22T05:39:05.266Z,368.00
2019-03-22T05:40:05.275Z,392.00
2019-03-22T05:41:05.276Z,420.00
2019-03-22T05:42:05.240Z,440.00
2019-03-22T05:43:05.566Z,464.00
2019-03-22T05:44:05.267Z,492.00
2019-03-22T05:45:05.202Z,520.00
2019-03-22T05:46:05.200Z,544.00
2019-03-22T05:47:05.204Z,576.00
2019-03-22T05:48:05.171Z,604.00
2019-03-22T05:49:05.178Z,640.00
2019-03-22T05:50:05.518Z,672.00
2019-03-22T05:51:05.158Z,700.00
2019-03-22T05:52:05.126Z,732.00
2019-03-22T05:53:05.163Z,764.00
2019-03-22T05:54:05.173Z,800.00
2019-03-22T05:55:05.122Z,832.00
2019-03-22T05:56:05.187Z,868.00
2019-03-22T05:57:13.420Z,908.00
2019-03-22T05:58:06.061Z,948.00
2019-03-22T05:59:05.057Z,980.00
2019-03-22T06:00:05.106Z,1012.00
2019-03-22T06:01:05.055Z,1048.00
2019-03-22T06:02:05.269Z,1084.00
2019-03-22T06:03:05.022Z,1132.00
2019-03-22T06:04:05.366Z,1172.00
2019-03-22T06:05:05.017Z,1220.00
2019-03-22T06:06:04.980Z,1260.00
2019-03-22T06:07:04.977Z,1308.00
2019-03-22T06:08:06.806Z,1352.00
2019-03-22T06:09:04.951Z,1400.00
2019-03-22T06:10:05.846Z,1440.00
2019-03-22T06:11:05.398Z,1480.00
2019-03-22T06:12:04.923Z,1528.00
2019-03-22T06:13:04.909Z,1572.00
2019-03-22T06:14:05.041Z,1608.00
2019-03-22T06:15:04.921Z,1648.00
2019-03-22T06:16:04.873Z,1672.00
2019-03-22T06:17:05.284Z,1724.00
2019-03-22T06:18:05.301Z,1756.00
2019-03-22T06:19:05.164Z,1796.00
2019-03-22T06:20:05.095Z,1836.00
2019-03-22T06:21:05.803Z,1872.00
2019-03-22T06:22:04.827Z,1904.00
2019-03-22T06:23:04.799Z,1940.00
2019-03-22T06:24:04.815Z,1984.00
2019-03-22T06:25:05.123Z,2024.00
2019-03-22T06:26:04.909Z,2068.00
2019-03-22T06:27:04.799Z,2116.00
2019-03-22T06:28:04.746Z,2176.00
2019-03-22T06:29:04.837Z,2196.00
2019-03-22T06:30:04.740Z,2220.00
2019-03-22T06:31:04.736Z,2260.00
2019-03-22T06:32:04.845Z,2296.00
2019-03-22T06:33:04.950Z,2364.00
2019-03-22T06:34:04.703Z,2384.00
2019-03-22T06:35:04.676Z,2400.00
2019-03-22T06:36:04.667Z,2420.00
2019-03-22T06:37:04.658Z,2460.00
2019-03-22T06:38:05.136Z,2496.00
2019-03-22T06:39:04.653Z,2528.00
2019-03-22T06:40:04.626Z,2564.00
2019-03-22T06:41:04.612Z,2604.00
2019-03-22T06:42:04.671Z,2652.00
2019-03-22T06:43:04.590Z,2700.00
2019-03-22T06:44:04.707Z,2760.00
2019-03-22T06:45:04.571Z,2864.00
2019-03-22T06:46:04.562Z,2976.00
2019-03-22T06:47:04.550Z,3060.00
2019-03-22T06:48:04.540Z,3144.00
2019-03-22T06:49:04.545Z,3200.00
2019-03-22T06:50:04.735Z,3284.00
2019-03-22T06:51:04.514Z,3304.00
2019-03-22T06:52:04.519Z,3316.00
2019-03-22T06:53:04.487Z,3364.00
2019-03-22T06:54:04.475Z,3408.00
2019-03-22T06:55:04.469Z,3488.00
2019-03-22T06:56:04.603Z,3536.00
2019-03-22T06:57:05.159Z,3712.00
2019-03-22T06:58:04.489Z,3828.00
2019-03-22T06:59:04.473Z,3952.00
2019-03-22T07:00:06.808Z,4032.00
2019-03-22T07:01:04.402Z,4108.00
2019-03-22T07:02:04.511Z,4324.00
2019-03-22T07:03:04.378Z,4464.00
2019-03-22T07:04:04.381Z,4668.00
2019-03-22T07:05:04.358Z,4900.00
2019-03-22T07:06:04.349Z,4848.00
2019-03-22T07:07:04.475Z,4872.00
2019-03-22T07:08:04.362Z,4592.00
2019-03-22T07:09:04.322Z,4844.00
2019-03-22T07:10:04.301Z,5012.00
2019-03-22T07:11:04.293Z,4856.00
2019-03-22T07:12:04.284Z,4684.00
2019-03-22T07:13:04.284Z,4928.00
2019-03-22T07:14:04.401Z,5252.00
2019-03-22T07:15:04.257Z,5264.00
2019-03-22T07:16:04.240Z,5308.00
2019-03-22T07:17:04.232Z,5464.00
2019-03-22T07:18:04.247Z,5236.00
2019-03-22T07:19:04.230Z,5392.00
2019-03-22T07:20:04.397Z,5788.00
2019-03-22T07:21:04.184Z,5732.00
2019-03-22T07:22:04.174Z,5632.00
2019-03-22T07:23:04.164Z,5880.00
2019-03-22T07:24:04.154Z,6340.00
2019-03-22T07:25:04.153Z,6704.00
2019-03-22T07:26:05.337Z,6872.00
2019-03-22T07:27:04.124Z,6704.00
2019-03-22T07:28:04.148Z,7220.00
2019-03-22T07:29:04.134Z,7184.00
2019-03-22T07:30:17.674Z,6868.00
2019-03-22T07:31:05.176Z,6244.00
2019-03-22T07:32:04.090Z,6320.00
2019-03-22T07:33:04.062Z,6976.00
2019-03-22T07:34:04.047Z,6880.00
2019-03-22T07:35:04.038Z,7264.00
2019-03-22T07:36:04.130Z,7428.00
2019-03-22T07:37:04.064Z,7876.00
2019-03-22T07:38:04.352Z,7832.00
2019-03-22T07:39:03.992Z,7444.00
2019-03-22T07:40:04.081Z,8324.00
2019-03-22T07:41:04.012Z,8364.00
2019-03-22T07:42:04.003Z,9028.00
2019-03-22T07:43:05.477Z,7052.00
2019-03-22T07:44:03.940Z,7624.00
2019-03-22T07:45:04.207Z,8348.00
2019-03-22T07:46:03.931Z,8136.00
2019-03-22T07:47:03.921Z,7880.00
2019-03-22T07:48:03.905Z,9004.00
2019-03-22T07:49:04.022Z,9520.00
2019-03-22T07:50:03.886Z,11124.00
2019-03-22T07:51:03.870Z,11384.00
2019-03-22T07:52:04.291Z,11540.00
2019-03-22T07:53:03.842Z,12036.00
2019-03-22T07:54:04.948Z,12368.00
2019-03-22T07:55:03.829Z,12856.00
2019-03-22T07:56:03.809Z,13244.00
2019-03-22T07:57:03.824Z,13492.00
2019-03-22T07:58:03.796Z,13908.00
2019-03-22T07:59:04.113Z,15104.00
2019-03-22T08:00:03.898Z,18560.00
2019-03-22T08:01:03.773Z,25280.00
2019-03-22T08:02:03.765Z,29312.00
2019-03-22T08:03:03.734Z,28480.00
2019-03-22T08:04:03.731Z,32096.00
2019-03-22T08:05:03.714Z,39328.00
2019-03-22T08:06:04.354Z,40224.00
2019-03-22T08:07:03.693Z,32192.00
2019-03-22T08:08:03.685Z,23360.00
2019-03-22T08:09:03.967Z,20224.00
2019-03-22T08:10:03.723Z,19360.00
2019-03-22T08:11:03.675Z,18976.00
2019-03-22T08:12:03.983Z,18208.00
2019-03-22T08:13:04.203Z,17664.00
2019-03-22T08:14:03.755Z,17952.00
2019-03-22T08:15:03.671Z,18560.00
2019-03-22T08:16:03.651Z,17792.00
2019-03-22T08:17:03.726Z,17728.00
2019-03-22T08:18:03.686Z,16928.00
2019-03-22T08:19:03.599Z,17664.00
2019-03-22T08:20:03.925Z,16928.00
2019-03-22T08:21:03.889Z,17184.00
2019-03-22T08:22:03.551Z,17152.00
2019-03-22T08:23:03.520Z,17280.00
2019-03-22T08:24:04.357Z,17472.00
2019-03-22T08:25:03.524Z,17216.00
2019-03-22T08:26:03.532Z,17216.00
2019-03-22T08:27:03.516Z,18336.00
2019-03-22T08:28:03.478Z,23424.00
2019-03-22T08:29:03.536Z,34368.00
2019-03-22T08:30:03.656Z,40096.00
2019-03-22T08:31:05.515Z,39136.00
2019-03-22T08:32:03.432Z,39328.00
2019-03-22T08:33:03.455Z,39904.00
2019-03-22T08:34:03.461Z,40032.00
2019-03-22T08:35:03.415Z,41888.00
2019-03-22T08:36:03.484Z,41792.00
2019-03-22T08:37:03.442Z,41664.00
2019-03-22T08:38:03.358Z,42656.00
2019-03-22T08:39:03.740Z,42752.00
2019-03-22T08:40:03.366Z,42976.00
2019-03-22T08:41:03.439Z,45312.00
2019-03-22T08:42:03.800Z,47712.00
2019-03-22T08:43:04.132Z,47552.00
2019-03-22T08:44:03.323Z,47776.00
2019-03-22T08:45:03.846Z,48608.00
2019-03-22T08:46:04.221Z,49184.00
2019-03-22T08:47:03.368Z,47904.00
2019-03-22T08:48:03.663Z,46656.00
2019-03-22T08:49:03.315Z,49440.00
2019-03-22T08:50:03.342Z,51104.00
2019-03-22T08:51:03.558Z,50528.00
2019-03-22T08:52:03.209Z,38752.00
2019-03-22T08:53:03.224Z,22848.00
2019-03-22T08:54:03.257Z,9828.00
2019-03-22T08:55:03.189Z,8176.00
2019-03-22T08:56:03.164Z,8004.00
2019-03-22T08:57:03.168Z,7916.00
2019-03-22T08:58:03.140Z,7796.00
2019-03-22T08:59:03.408Z,7848.00
2019-03-22T09:00:04.065Z,7708.00
2019-03-22T09:01:03.138Z,7684.00
2019-03-22T09:02:03.127Z,7692.00
2019-03-22T09:03:03.093Z,7724.00
2019-03-22T09:04:03.092Z,7720.00
2019-03-22T09:05:03.160Z,7680.00
2019-03-22T09:06:03.162Z,7724.00
2019-03-22T09:07:03.172Z,7744.00
2019-03-22T09:08:03.034Z,7860.00
2019-03-22T09:09:03.830Z,8044.00
2019-03-22T09:10:03.016Z,8036.00
2019-03-22T09:11:03.318Z,8056.00
2019-03-22T09:12:03.107Z,7984.00
2019-03-22T09:13:02.997Z,8008.00
2019-03-22T09:14:02.983Z,7944.00
2019-03-22T09:15:02.966Z,8008.00
2019-03-22T09:16:02.963Z,8052.00
2019-03-22T09:17:03.121Z,8092.00
2019-03-22T09:18:03.061Z,8064.00
2019-03-22T09:19:02.963Z,8208.00
2019-03-22T09:20:02.963Z,8132.00
2019-03-22T09:21:02.985Z,8196.00
2019-03-22T09:22:02.972Z,8144.00
2019-03-22T09:23:03.796Z,7900.00
2019-03-22T09:24:02.954Z,8100.00
2019-03-22T09:25:02.857Z,7932.00
2019-03-22T09:26:02.861Z,7984.00
2019-03-22T09:27:02.970Z,8036.00
2019-03-22T09:28:03.079Z,7904.00
2019-03-22T09:29:03.203Z,7908.00
2019-03-22T09:30:02.885Z,7880.00
2019-03-22T09:31:10.288Z,7852.00
2019-03-22T09:32:03.873Z,7920.00
2019-03-22T09:33:02.769Z,7924.00
2019-03-22T09:34:02.773Z,8076.00
2019-03-22T09:35:02.743Z,8036.00
2019-03-22T09:36:03.205Z,7992.00
2019-03-22T09:37:02.725Z,8020.00
2019-03-22T09:38:12.361Z,8024.00
2019-03-22T09:39:03.740Z,8004.00
2019-03-22T09:40:02.700Z,7984.00
2019-03-22T09:41:02.782Z,7984.00
2019-03-22T09:42:02.736Z,8072.00
2019-03-22T09:43:03.059Z,8056.00
2019-03-22T09:44:02.704Z,8044.00
2019-03-22T09:45:02.662Z,8044.00
2019-03-22T09:46:02.674Z,8188.00
2019-03-22T09:47:02.627Z,8300.00
2019-03-22T09:48:02.776Z,8276.00
2019-03-22T09:49:02.657Z,8292.00
2019-03-22T09:50:02.985Z,8392.00
2019-03-22T09:51:02.573Z,8228.00
2019-03-22T09:52:02.569Z,8376.00
2019-03-22T09:53:02.673Z,8388.00
2019-03-22T09:54:02.734Z,8348.00
2019-03-22T09:55:12.746Z,8424.00
2019-03-22T09:56:03.517Z,8448.00
2019-03-22T09:57:02.992Z,8440.00
2019-03-22T09:58:02.508Z,8432.00
2019-03-22T09:59:02.533Z,8376.00
2019-03-22T10:00:03.092Z,8408.00
2019-03-22T10:01:02.575Z,8456.00
2019-03-22T10:02:02.542Z,8444.00
2019-03-22T10:03:02.612Z,8376.00
2019-03-22T10:04:02.820Z,8412.00
2019-03-22T10:05:02.414Z,8368.00
2019-03-22T10:06:02.496Z,8476.00
2019-03-22T10:07:02.406Z,8472.00
2019-03-22T10:08:02.398Z,8612.00
2019-03-22T10:09:05.344Z,8568.00
2019-03-22T10:10:02.390Z,8692.00
2019-03-22T10:11:03.045Z,8548.00
2019-03-22T10:12:02.472Z,8620.00
2019-03-22T10:13:02.534Z,8584.00
2019-03-22T10:14:02.398Z,8652.00
2019-03-22T10:15:02.384Z,8696.00
2019-03-22T10:16:02.855Z,8568.00
2019-03-22T10:17:02.569Z,8696.00
2019-03-22T10:18:03.152Z,8700.00
2019-03-22T10:19:02.268Z,8788.00
2019-03-22T10:20:02.458Z,8740.00
2019-03-22T10:21:02.796Z,8896.00
2019-03-22T10:22:03.310Z,8760.00
2019-03-22T10:23:02.515Z,8784.00
2019-03-22T10:24:02.791Z,8840.00
2019-03-22T10:25:02.726Z,8844.00
2019-03-22T10:26:02.515Z,8772.00
2019-03-22T10:27:05.102Z,8756.00
2019-03-22T10:28:06.582Z,8828.00
2019-03-22T10:29:02.255Z,8788.00
2019-03-22T10:30:02.306Z,8976.00
2019-03-22T10:31:02.224Z,8908.00
2019-03-22T10:32:02.151Z,8872.00
2019-03-22T10:33:02.186Z,8936.00
2019-03-22T10:34:02.217Z,8976.00
2019-03-22T10:35:02.137Z,8968.00
2019-03-22T10:36:02.301Z,8972.00
2019-03-22T10:37:02.135Z,9220.00
2019-03-22T10:38:04.763Z,9424.00
2019-03-22T10:39:02.216Z,9608.00
2019-03-22T10:40:02.321Z,9728.00
2019-03-22T10:41:02.044Z,9976.00
2019-03-22T10:42:02.262Z,11812.00
2019-03-22T10:43:03.609Z,36064.00
2019-03-22T10:44:02.467Z,68192.00
2019-03-22T10:45:02.194Z,84672.00
2019-03-22T10:46:02.037Z,84000.00
2019-03-22T10:47:01.983Z,84576.00
2019-03-22T10:48:03.384Z,83712.00
2019-03-22T10:49:02.046Z,85088.00
2019-03-22T10:50:02.123Z,83264.00
2019-03-22T10:51:02.193Z,81440.00
2019-03-22T10:52:04.488Z,84544.00
2019-03-22T10:53:01.931Z,86656.00
2019-03-22T10:54:01.971Z,90144.00
2019-03-22T10:55:17.378Z,89120.00
2019-03-22T10:56:02.960Z,92160.00
2019-03-22T10:57:01.855Z,94592.00
2019-03-22T10:58:01.906Z,96096.00
2019-03-22T10:59:02.239Z,96128.00
2019-03-22T11:00:02.043Z,95904.00
2019-03-22T11:01:02.789Z,96320.00
2019-03-22T11:02:03.591Z,93984.00
2019-03-22T11:03:01.812Z,93056.00
2019-03-22T11:04:01.966Z,92704.00
2019-03-22T11:05:02.308Z,92672.00
2019-03-22T11:06:02.340Z,94144.00
2019-03-22T11:07:01.912Z,93056.00
2019-03-22T11:08:02.236Z,95232.00
2019-03-22T11:09:01.940Z,92864.00
2019-03-22T11:10:02.013Z,96416.00
2019-03-22T11:11:01.721Z,97248.00
2019-03-22T11:12:11.736Z,94624.00
2019-03-22T11:13:02.889Z,93280.00
2019-03-22T11:14:01.852Z,91040.00
2019-03-22T11:15:02.563Z,89568.00
2019-03-22T11:16:02.807Z,90144.00
2019-03-22T11:17:01.650Z,87744.00
2019-03-22T11:18:01.725Z,89824.00
2019-03-22T11:19:01.632Z,91648.00
2019-03-22T11:20:01.716Z,93760.00
2019-03-22T11:21:05.381Z,95328.00
2019-03-22T11:22:02.799Z,95744.00
2019-03-22T11:23:01.745Z,96320.00
2019-03-22T11:24:01.801Z,95168.00
2019-03-22T11:25:01.586Z,94688.00
2019-03-22T11:26:04.323Z,95328.00
2019-03-22T11:27:01.551Z,95904.00
2019-03-22T11:28:01.545Z,97984.00
2019-03-22T11:29:01.992Z,99104.00
2019-03-22T11:30:01.572Z,98304.00
2019-03-22T11:31:05.058Z,97696.00
2019-03-22T11:32:01.795Z,98624.00
2019-03-22T11:33:01.493Z,101056.00
2019-03-22T11:34:01.498Z,102464.00
2019-03-22T11:35:01.473Z,100128.00
2019-03-22T11:36:01.852Z,99168.00
2019-03-22T11:37:01.528Z,98944.00
2019-03-22T11:38:01.554Z,98752.00
2019-03-22T11:39:01.468Z,99360.00
2019-03-22T11:40:01.594Z,99104.00
2019-03-22T11:41:01.451Z,98784.00
2019-03-22T11:42:02.564Z,99040.00
2019-03-22T11:43:08.621Z,98528.00
2019-03-22T11:44:02.430Z,99712.00
2019-03-22T11:45:01.591Z,99744.00
2019-03-22T11:46:01.503Z,101600.00
2019-03-22T11:47:01.346Z,101056.00
2019-03-22T11:48:01.499Z,97568.00
2019-03-22T11:49:01.899Z,100128.00
2019-03-22T11:50:01.320Z,101792.00
2019-03-22T11:51:04.339Z,101856.00
2019-03-22T11:52:02.813Z,101376.00
2019-03-22T11:53:01.295Z,98272.00
2019-03-22T11:54:01.634Z,97728.00
2019-03-22T11:55:01.270Z,99008.00
2019-03-22T11:56:01.334Z,102816.00
2019-03-22T11:57:01.250Z,102016.00
2019-03-22T11:58:01.443Z,103456.00
2019-03-22T11:59:01.240Z,103424.00
2019-03-22T12:00:01.379Z,104864.00
2019-03-22T12:01:01.241Z,106016.00
2019-03-22T12:02:01.232Z,103168.00
2019-03-22T12:03:01.568Z,102336.00
2019-03-22T12:04:01.429Z,99520.00
2019-03-22T12:05:01.221Z,99072.00
2019-03-22T12:06:01.485Z,95808.00
2019-03-22T12:07:01.163Z,98240.00
2019-03-22T12:08:01.160Z,101088.00
2019-03-22T12:09:01.136Z,105088.00
2019-03-22T12:10:01.139Z,104128.00
2019-03-22T12:11:01.149Z,102048.00
2019-03-22T12:12:01.834Z,102656.00
2019-03-22T12:13:01.097Z,101440.00
2019-03-22T12:14:01.512Z,104352.00
2019-03-22T12:15:01.470Z,103008.00
2019-03-22T12:16:01.096Z,105312.00
2019-03-22T12:17:01.444Z,106048.00
2019-03-22T12:18:01.459Z,105568.00
2019-03-22T12:19:01.239Z,105760.00
2019-03-22T12:20:02.065Z,104512.00
2019-03-22T12:21:01.052Z,103264.00
2019-03-22T12:22:07.516Z,104512.00